LESO/EAS METAR and TAF weather

Enter ICAO airport designator
Station Type Date Time Source
LESO METAR 2020/01/24 09:30 UTC NOAA

LESO 240930Z 22005KT 190V250 CAVOK 14/05 Q1019


Station Type Date Time Source
LESO Decoded METAR 2020/01/24 09:30 UTC NOAA

San Sebastian / Fuenterrabia, Spain (LESO) 43-21N 001-48W 8M
Jan 24, 2020 - 04:30 AM EST / 2020.01.24 0930 UTC
Wind: from the SW (220 degrees) at 6 MPH (5 KT) (direction variable):0
Visibility: greater than 7 mile(s):0
Temperature: 57 F (14 C)
Dew Point: 41 F (5 C)
Relative Humidity: 54%
Pressure (altimeter): 30.09 in. Hg (1019 hPa)
ob: LESO 240930Z 22005KT 190V250 CAVOK 14/05 Q1019
cycle: 9

Station Type Date Time Source
LESO TAF 2020/01/24 06:27 UTC NOAA

TAF LESO 240500Z 2406/2506 18008KT CAVOK TX15/2413Z TN08/2506Z

Example: see airport list